sensor_id;sensor_type;location;lat;lon;timestamp;P1;durP1;ratioP1;P2;durP2;ratioP2
14849;SDS011;7517;48.400;11.770;2022-10-26T00:01:04;2.00;;;1.80;;
14849;SDS011;7517;48.400;11.770;2022-10-26T00:03:34;1.87;;;1.50;;
14849;SDS011;7517;48.400;11.770;2022-10-26T00:06:06;1.97;;;1.60;;
14849;SDS011;7517;48.400;11.770;2022-10-26T00:08:36;2.03;;;1.50;;
14849;SDS011;7517;48.400;11.770;2022-10-26T00:11:03;2.80;;;2.33;;
14849;SDS011;7517;48.400;11.770;2022-10-26T00:13:31;3.00;;;1.93;;
14849;SDS011;7517;48.400;11.770;2022-10-26T00:16:00;1.93;;;1.60;;
14849;SDS011;7517;48.400;11.770;2022-10-26T00:18:32;1.70;;;1.60;;
14849;SDS011;7517;48.400;11.770;2022-10-26T00:21:01;1.67;;;1.57;;
14849;SDS011;7517;48.400;11.770;2022-10-26T00:23:30;2.10;;;1.97;;
14849;SDS011;7517;48.400;11.770;2022-10-26T00:25:57;1.80;;;1.70;;
14849;SDS011;7517;48.400;11.770;2022-10-26T00:28:25;1.90;;;1.80;;
14849;SDS011;7517;48.400;11.770;2022-10-26T00:30:52;2.57;;;1.83;;
14849;SDS011;7517;48.400;11.770;2022-10-26T00:33:20;2.00;;;1.77;;
14849;SDS011;7517;48.400;11.770;2022-10-26T00:35:47;2.20;;;2.00;;
14849;SDS011;7517;48.400;11.770;2022-10-26T00:38:18;3.80;;;1.60;;
14849;SDS011;7517;48.400;11.770;2022-10-26T00:40:47;1.70;;;1.60;;
14849;SDS011;7517;48.400;11.770;2022-10-26T00:43:15;2.10;;;1.90;;
14849;SDS011;7517;48.400;11.770;2022-10-26T00:46:01;2.30;;;1.73;;
14849;SDS011;7517;48.400;11.770;2022-10-26T00:48:38;3.37;;;2.03;;
14849;SDS011;7517;48.400;11.770;2022-10-26T00:51:12;2.40;;;1.90;;
14849;SDS011;7517;48.400;11.770;2022-10-26T00:53:49;1.93;;;1.70;;
14849;SDS011;7517;48.400;11.770;2022-10-26T00:56:18;2.03;;;1.83;;
14849;SDS011;7517;48.400;11.770;2022-10-26T00:58:46;1.87;;;1.53;;
14849;SDS011;7517;48.400;11.770;2022-10-26T01:01:14;2.50;;;2.17;;
14849;SDS011;7517;48.400;11.770;2022-10-26T01:03:41;2.20;;;2.00;;
14849;SDS011;7517;48.400;11.770;2022-10-26T01:06:09;2.30;;;1.90;;
14849;SDS011;7517;48.400;11.770;2022-10-26T01:08:39;2.80;;;1.90;;
14849;SDS011;7517;48.400;11.770;2022-10-26T01:11:09;3.10;;;1.93;;
14849;SDS011;7517;48.400;11.770;2022-10-26T01:13:38;1.90;;;1.80;;
14849;SDS011;7517;48.400;11.770;2022-10-26T01:16:15;2.10;;;2.00;;
14849;SDS011;7517;48.400;11.770;2022-10-26T01:19:04;2.87;;;2.20;;
14849;SDS011;7517;48.400;11.770;2022-10-26T01:22:23;2.50;;;2.03;;
14849;SDS011;7517;48.400;11.770;2022-10-26T01:25:00;3.27;;;2.40;;
14849;SDS011;7517;48.400;11.770;2022-10-26T01:27:38;2.40;;;2.07;;
14849;SDS011;7517;48.400;11.770;2022-10-26T01:30:19;3.00;;;2.40;;
14849;SDS011;7517;48.400;11.770;2022-10-26T01:33:06;4.47;;;2.30;;
14849;SDS011;7517;48.400;11.770;2022-10-26T01:35:51;2.87;;;2.33;;
14849;SDS011;7517;48.400;11.770;2022-10-26T01:38:33;2.53;;;2.27;;
14849;SDS011;7517;48.400;11.770;2022-10-26T01:41:11;2.03;;;1.83;;
14849;SDS011;7517;48.400;11.770;2022-10-26T01:43:48;2.30;;;2.10;;
14849;SDS011;7517;48.400;11.770;2022-10-26T01:46:23;2.50;;;2.30;;
14849;SDS011;7517;48.400;11.770;2022-10-26T01:48:54;3.00;;;2.20;;
14849;SDS011;7517;48.400;11.770;2022-10-26T01:51:26;2.93;;;2.30;;
14849;SDS011;7517;48.400;11.770;2022-10-26T01:53:57;2.90;;;2.40;;
14849;SDS011;7517;48.400;11.770;2022-10-26T01:56:24;2.33;;;2.13;;
14849;SDS011;7517;48.400;11.770;2022-10-26T01:59:17;2.17;;;2.00;;
14849;SDS011;7517;48.400;11.770;2022-10-26T02:02:24;2.90;;;2.70;;
14849;SDS011;7517;48.400;11.770;2022-10-26T02:05:10;4.17;;;2.13;;
14849;SDS011;7517;48.400;11.770;2022-10-26T02:08:10;3.73;;;1.87;;
14849;SDS011;7517;48.400;11.770;2022-10-26T02:10:55;2.37;;;2.17;;
14849;SDS011;7517;48.400;11.770;2022-10-26T02:13:38;2.33;;;2.00;;
14849;SDS011;7517;48.400;11.770;2022-10-26T02:16:14;2.87;;;2.07;;
14849;SDS011;7517;48.400;11.770;2022-10-26T02:18:52;4.10;;;2.47;;
14849;SDS011;7517;48.400;11.770;2022-10-26T02:21:28;2.83;;;2.30;;
14849;SDS011;7517;48.400;11.770;2022-10-26T02:24:03;2.90;;;2.60;;
14849;SDS011;7517;48.400;11.770;2022-10-26T02:26:34;5.67;;;2.97;;
14849;SDS011;7517;48.400;11.770;2022-10-26T02:29:05;3.60;;;2.30;;
14849;SDS011;7517;48.400;11.770;2022-10-26T02:31:39;2.10;;;1.90;;
14849;SDS011;7517;48.400;11.770;2022-10-26T02:34:10;2.97;;;2.43;;
14849;SDS011;7517;48.400;11.770;2022-10-26T02:36:43;2.80;;;2.20;;
14849;SDS011;7517;48.400;11.770;2022-10-26T02:39:15;2.70;;;2.23;;
14849;SDS011;7517;48.400;11.770;2022-10-26T02:41:44;2.90;;;2.30;;
14849;SDS011;7517;48.400;11.770;2022-10-26T02:44:15;3.43;;;2.20;;
14849;SDS011;7517;48.400;11.770;2022-10-26T02:46:49;3.60;;;2.70;;
14849;SDS011;7517;48.400;11.770;2022-10-26T02:49:20;2.87;;;2.67;;
14849;SDS011;7517;48.400;11.770;2022-10-26T02:51:48;1.73;;;1.63;;
14849;SDS011;7517;48.400;11.770;2022-10-26T02:54:23;2.20;;;1.97;;
14849;SDS011;7517;48.400;11.770;2022-10-26T02:56:58;2.10;;;2.00;;
14849;SDS011;7517;48.400;11.770;2022-10-26T02:59:31;1.90;;;1.80;;
14849;SDS011;7517;48.400;11.770;2022-10-26T03:02:03;2.47;;;2.27;;
14849;SDS011;7517;48.400;11.770;2022-10-26T03:04:32;1.83;;;1.73;;
14849;SDS011;7517;48.400;11.770;2022-10-26T03:07:00;3.60;;;2.33;;
14849;SDS011;7517;48.400;11.770;2022-10-26T03:09:28;2.00;;;1.80;;
14849;SDS011;7517;48.400;11.770;2022-10-26T03:11:55;2.33;;;2.13;;
14849;SDS011;7517;48.400;11.770;2022-10-26T03:14:24;2.17;;;1.97;;
14849;SDS011;7517;48.400;11.770;2022-10-26T03:16:51;2.07;;;1.97;;
14849;SDS011;7517;48.400;11.770;2022-10-26T03:19:18;2.43;;;2.23;;
14849;SDS011;7517;48.400;11.770;2022-10-26T03:21:47;1.90;;;1.80;;
14849;SDS011;7517;48.400;11.770;2022-10-26T03:24:14;2.50;;;2.30;;
14849;SDS011;7517;48.400;11.770;2022-10-26T03:26:41;3.83;;;2.23;;
14849;SDS011;7517;48.400;11.770;2022-10-26T03:29:08;3.63;;;2.03;;
14849;SDS011;7517;48.400;11.770;2022-10-26T03:31:35;2.33;;;2.13;;
14849;SDS011;7517;48.400;11.770;2022-10-26T03:34:02;2.27;;;1.93;;
14849;SDS011;7517;48.400;11.770;2022-10-26T03:36:29;2.20;;;2.00;;
14849;SDS011;7517;48.400;11.770;2022-10-26T03:38:58;2.30;;;2.10;;
14849;SDS011;7517;48.400;11.770;2022-10-26T03:41:25;2.20;;;1.97;;
14849;SDS011;7517;48.400;11.770;2022-10-26T03:43:52;3.50;;;2.47;;
14849;SDS011;7517;48.400;11.770;2022-10-26T03:46:20;4.13;;;2.13;;
14849;SDS011;7517;48.400;11.770;2022-10-26T03:48:47;2.70;;;2.10;;
14849;SDS011;7517;48.400;11.770;2022-10-26T03:51:14;2.50;;;2.13;;
14849;SDS011;7517;48.400;11.770;2022-10-26T03:53:41;2.10;;;2.00;;
14849;SDS011;7517;48.400;11.770;2022-10-26T03:56:09;2.40;;;2.20;;
14849;SDS011;7517;48.400;11.770;2022-10-26T03:58:36;2.20;;;1.77;;
14849;SDS011;7517;48.400;11.770;2022-10-26T04:01:03;1.80;;;1.70;;
14849;SDS011;7517;48.400;11.770;2022-10-26T04:03:30;3.57;;;2.33;;
14849;SDS011;7517;48.400;11.770;2022-10-26T04:05:59;3.50;;;2.33;;
14849;SDS011;7517;48.400;11.770;2022-10-26T04:08:26;1.80;;;1.70;;
14849;SDS011;7517;48.400;11.770;2022-10-26T04:10:53;2.30;;;2.13;;
14849;SDS011;7517;48.400;11.770;2022-10-26T04:13:22;2.90;;;2.60;;
14849;SDS011;7517;48.400;11.770;2022-10-26T04:15:49;2.47;;;1.83;;
14849;SDS011;7517;48.400;11.770;2022-10-26T04:18:16;2.17;;;1.97;;
14849;SDS011;7517;48.400;11.770;2022-10-26T04:20:43;3.23;;;2.10;;
14849;SDS011;7517;48.400;11.770;2022-10-26T04:23:11;2.50;;;2.30;;
14849;SDS011;7517;48.400;11.770;2022-10-26T04:25:41;1.93;;;1.77;;
14849;SDS011;7517;48.400;11.770;2022-10-26T04:28:09;2.13;;;1.90;;
14849;SDS011;7517;48.400;11.770;2022-10-26T04:30:40;2.10;;;1.90;;
14849;SDS011;7517;48.400;11.770;2022-10-26T04:33:07;2.47;;;1.90;;
14849;SDS011;7517;48.400;11.770;2022-10-26T04:35:34;4.33;;;2.10;;
14849;SDS011;7517;48.400;11.770;2022-10-26T04:38:02;2.00;;;1.90;;
14849;SDS011;7517;48.400;11.770;2022-10-26T04:40:32;2.57;;;2.03;;
14849;SDS011;7517;48.400;11.770;2022-10-26T04:43:00;2.50;;;1.77;;
14849;SDS011;7517;48.400;11.770;2022-10-26T04:45:27;2.93;;;1.90;;
14849;SDS011;7517;48.400;11.770;2022-10-26T04:47:59;3.03;;;1.87;;
14849;SDS011;7517;48.400;11.770;2022-10-26T04:50:29;2.27;;;1.80;;
14849;SDS011;7517;48.400;11.770;2022-10-26T04:52:56;2.10;;;1.77;;
14849;SDS011;7517;48.400;11.770;2022-10-26T04:55:24;1.73;;;1.63;;
14849;SDS011;7517;48.400;11.770;2022-10-26T04:57:51;2.13;;;2.03;;
14849;SDS011;7517;48.400;11.770;2022-10-26T05:00:19;2.20;;;1.73;;
14849;SDS011;7517;48.400;11.770;2022-10-26T05:02:46;1.93;;;1.83;;
14849;SDS011;7517;48.400;11.770;2022-10-26T05:05:15;2.13;;;1.97;;
14849;SDS011;7517;48.400;11.770;2022-10-26T05:07:42;2.50;;;1.97;;
14849;SDS011;7517;48.400;11.770;2022-10-26T05:10:09;2.03;;;1.80;;
14849;SDS011;7517;48.400;11.770;2022-10-26T05:12:37;2.63;;;2.10;;
14849;SDS011;7517;48.400;11.770;2022-10-26T05:15:07;1.87;;;1.77;;
14849;SDS011;7517;48.400;11.770;2022-10-26T05:17:38;1.83;;;1.73;;
14849;SDS011;7517;48.400;11.770;2022-10-26T05:20:05;1.83;;;1.73;;
14849;SDS011;7517;48.400;11.770;2022-10-26T05:22:38;1.83;;;1.70;;
14849;SDS011;7517;48.400;11.770;2022-10-26T05:25:08;2.63;;;2.00;;
14849;SDS011;7517;48.400;11.770;2022-10-26T05:27:38;2.63;;;2.10;;
14849;SDS011;7517;48.400;11.770;2022-10-26T05:30:09;2.17;;;1.97;;
14849;SDS011;7517;48.400;11.770;2022-10-26T05:32:53;1.97;;;1.73;;
14849;SDS011;7517;48.400;11.770;2022-10-26T05:35:21;4.87;;;2.67;;
14849;SDS011;7517;48.400;11.770;2022-10-26T05:37:51;3.20;;;2.10;;
14849;SDS011;7517;48.400;11.770;2022-10-26T05:40:18;2.30;;;2.10;;
14849;SDS011;7517;48.400;11.770;2022-10-26T05:42:46;2.27;;;2.13;;
14849;SDS011;7517;48.400;11.770;2022-10-26T05:45:14;2.67;;;2.47;;
14849;SDS011;7517;48.400;11.770;2022-10-26T05:47:43;2.43;;;2.23;;
14849;SDS011;7517;48.400;11.770;2022-10-26T05:50:11;2.43;;;2.23;;
14849;SDS011;7517;48.400;11.770;2022-10-26T05:52:39;2.33;;;2.00;;
14849;SDS011;7517;48.400;11.770;2022-10-26T05:55:10;3.50;;;1.73;;
14849;SDS011;7517;48.400;11.770;2022-10-26T05:57:40;2.17;;;1.80;;
14849;SDS011;7517;48.400;11.770;2022-10-26T06:00:09;2.30;;;2.10;;
14849;SDS011;7517;48.400;11.770;2022-10-26T06:02:48;1.83;;;1.73;;
14849;SDS011;7517;48.400;11.770;2022-10-26T06:05:37;2.20;;;2.10;;
14849;SDS011;7517;48.400;11.770;2022-10-26T06:08:20;1.97;;;1.87;;
14849;SDS011;7517;48.400;11.770;2022-10-26T06:10:53;1.97;;;1.83;;
14849;SDS011;7517;48.400;11.770;2022-10-26T06:13:27;2.53;;;1.97;;
14849;SDS011;7517;48.400;11.770;2022-10-26T06:16:01;2.23;;;2.13;;
14849;SDS011;7517;48.400;11.770;2022-10-26T06:18:50;2.23;;;2.03;;
14849;SDS011;7517;48.400;11.770;2022-10-26T06:21:37;4.63;;;2.53;;
14849;SDS011;7517;48.400;11.770;2022-10-26T06:24:40;2.40;;;2.00;;
14849;SDS011;7517;48.400;11.770;2022-10-26T06:27:25;2.13;;;1.93;;
14849;SDS011;7517;48.400;11.770;2022-10-26T06:30:09;2.47;;;2.27;;
14849;SDS011;7517;48.400;11.770;2022-10-26T06:32:42;6.10;;;2.83;;
14849;SDS011;7517;48.400;11.770;2022-10-26T06:35:24;2.70;;;2.50;;
14849;SDS011;7517;48.400;11.770;2022-10-26T06:38:08;2.80;;;2.50;;
14849;SDS011;7517;48.400;11.770;2022-10-26T06:40:42;2.70;;;2.50;;
14849;SDS011;7517;48.400;11.770;2022-10-26T06:43:22;2.90;;;2.60;;
14849;SDS011;7517;48.400;11.770;2022-10-26T06:45:53;3.43;;;3.20;;
14849;SDS011;7517;48.400;11.770;2022-10-26T06:48:43;3.13;;;2.83;;
14849;SDS011;7517;48.400;11.770;2022-10-26T06:51:21;3.00;;;2.80;;
14849;SDS011;7517;48.400;11.770;2022-10-26T06:53:54;3.00;;;2.80;;
14849;SDS011;7517;48.400;11.770;2022-10-26T06:56:33;2.77;;;2.50;;
14849;SDS011;7517;48.400;11.770;2022-10-26T07:02:00;2.53;;;1.90;;
14849;SDS011;7517;48.400;11.770;2022-10-26T07:04:27;2.93;;;2.53;;
14849;SDS011;7517;48.400;11.770;2022-10-26T07:06:55;2.67;;;2.47;;
14849;SDS011;7517;48.400;11.770;2022-10-26T07:09:25;2.80;;;2.10;;
14849;SDS011;7517;48.400;11.770;2022-10-26T07:12:02;2.40;;;2.20;;
14849;SDS011;7517;48.400;11.770;2022-10-26T07:14:31;2.67;;;2.43;;
14849;SDS011;7517;48.400;11.770;2022-10-26T07:17:05;2.70;;;2.50;;
14849;SDS011;7517;48.400;11.770;2022-10-26T07:19:37;3.37;;;2.23;;
14849;SDS011;7517;48.400;11.770;2022-10-26T07:22:04;2.73;;;2.27;;
14849;SDS011;7517;48.400;11.770;2022-10-26T07:24:34;3.00;;;2.07;;
14849;SDS011;7517;48.400;11.770;2022-10-26T07:27:01;3.07;;;2.20;;
14849;SDS011;7517;48.400;11.770;2022-10-26T07:29:33;2.83;;;2.33;;
14849;SDS011;7517;48.400;11.770;2022-10-26T07:32:06;3.27;;;2.60;;
14849;SDS011;7517;48.400;11.770;2022-10-26T07:34:36;3.60;;;2.37;;
14849;SDS011;7517;48.400;11.770;2022-10-26T07:37:12;4.00;;;2.60;;
14849;SDS011;7517;48.400;11.770;2022-10-26T07:39:47;5.13;;;2.80;;
14849;SDS011;7517;48.400;11.770;2022-10-26T07:42:23;3.10;;;2.13;;
14849;SDS011;7517;48.400;11.770;2022-10-26T07:44:52;2.60;;;2.40;;
14849;SDS011;7517;48.400;11.770;2022-10-26T07:47:23;3.90;;;2.43;;
14849;SDS011;7517;48.400;11.770;2022-10-26T07:49:53;2.47;;;2.27;;
14849;SDS011;7517;48.400;11.770;2022-10-26T07:52:24;2.30;;;2.10;;
14849;SDS011;7517;48.400;11.770;2022-10-26T07:54:54;3.60;;;2.30;;
14849;SDS011;7517;48.400;11.770;2022-10-26T07:57:28;2.23;;;2.13;;
14849;SDS011;7517;48.400;11.770;2022-10-26T08:00:17;2.07;;;1.87;;
14849;SDS011;7517;48.400;11.770;2022-10-26T08:02:54;2.43;;;2.23;;
14849;SDS011;7517;48.400;11.770;2022-10-26T08:05:23;3.40;;;2.00;;
14849;SDS011;7517;48.400;11.770;2022-10-26T08:07:50;2.30;;;2.10;;
14849;SDS011;7517;48.400;11.770;2022-10-26T08:10:17;2.13;;;1.90;;
14849;SDS011;7517;48.400;11.770;2022-10-26T08:12:45;2.50;;;2.30;;
14849;SDS011;7517;48.400;11.770;2022-10-26T08:15:12;2.43;;;1.93;;
14849;SDS011;7517;48.400;11.770;2022-10-26T08:17:41;2.43;;;1.77;;
14849;SDS011;7517;48.400;11.770;2022-10-26T08:20:09;1.70;;;1.60;;
14849;SDS011;7517;48.400;11.770;2022-10-26T08:22:37;2.90;;;1.77;;
14849;SDS011;7517;48.400;11.770;2022-10-26T08:25:04;2.67;;;1.90;;
14849;SDS011;7517;48.400;11.770;2022-10-26T08:27:32;2.73;;;2.27;;
14849;SDS011;7517;48.400;11.770;2022-10-26T08:29:59;2.60;;;2.07;;
14849;SDS011;7517;48.400;11.770;2022-10-26T08:32:26;2.23;;;1.90;;
14849;SDS011;7517;48.400;11.770;2022-10-26T08:35:00;1.90;;;1.80;;
14849;SDS011;7517;48.400;11.770;2022-10-26T08:37:28;3.10;;;1.90;;
14849;SDS011;7517;48.400;11.770;2022-10-26T08:39:57;2.10;;;1.90;;
14849;SDS011;7517;48.400;11.770;2022-10-26T08:42:29;1.97;;;1.77;;
14849;SDS011;7517;48.400;11.770;2022-10-26T08:45:09;2.70;;;1.97;;
14849;SDS011;7517;48.400;11.770;2022-10-26T08:47:52;1.63;;;1.53;;
14849;SDS011;7517;48.400;11.770;2022-10-26T08:50:29;1.93;;;1.70;;
14849;SDS011;7517;48.400;11.770;2022-10-26T08:53:05;1.47;;;1.37;;
14849;SDS011;7517;48.400;11.770;2022-10-26T08:55:46;2.80;;;1.80;;
14849;SDS011;7517;48.400;11.770;2022-10-26T08:58:29;3.53;;;2.07;;
14849;SDS011;7517;48.400;11.770;2022-10-26T09:01:06;1.80;;;1.70;;
14849;SDS011;7517;48.400;11.770;2022-10-26T09:03:37;2.50;;;2.00;;
14849;SDS011;7517;48.400;11.770;2022-10-26T09:06:15;2.23;;;1.90;;
14849;SDS011;7517;48.400;11.770;2022-10-26T09:08:56;1.63;;;1.53;;
14849;SDS011;7517;48.400;11.770;2022-10-26T09:11:35;1.73;;;1.57;;
14849;SDS011;7517;48.400;11.770;2022-10-26T09:14:31;2.23;;;1.60;;
14849;SDS011;7517;48.400;11.770;2022-10-26T09:17:24;3.53;;;1.97;;
14849;SDS011;7517;48.400;11.770;2022-10-26T09:20:08;1.33;;;1.23;;
14849;SDS011;7517;48.400;11.770;2022-10-26T09:23:15;1.40;;;1.30;;
14849;SDS011;7517;48.400;11.770;2022-10-26T09:26:01;1.40;;;1.30;;
14849;SDS011;7517;48.400;11.770;2022-10-26T09:28:38;2.93;;;1.87;;
14849;SDS011;7517;48.400;11.770;2022-10-26T09:31:14;2.97;;;1.50;;
14849;SDS011;7517;48.400;11.770;2022-10-26T09:33:49;1.07;;;0.97;;
14849;SDS011;7517;48.400;11.770;2022-10-26T09:36:38;1.50;;;1.07;;
14849;SDS011;7517;48.400;11.770;2022-10-26T09:39:16;1.23;;;1.00;;
14849;SDS011;7517;48.400;11.770;2022-10-26T09:41:56;1.43;;;0.80;;
14849;SDS011;7517;48.400;11.770;2022-10-26T09:44:32;0.70;;;0.70;;
14849;SDS011;7517;48.400;11.770;2022-10-26T09:47:27;2.07;;;1.00;;
14849;SDS011;7517;48.400;11.770;2022-10-26T09:50:17;1.70;;;1.00;;
14849;SDS011;7517;48.400;11.770;2022-10-26T09:52:50;1.13;;;1.00;;
14849;SDS011;7517;48.400;11.770;2022-10-26T09:55:30;2.00;;;0.90;;
14849;SDS011;7517;48.400;11.770;2022-10-26T09:58:09;1.00;;;0.90;;
14849;SDS011;7517;48.400;11.770;2022-10-26T10:00:54;1.60;;;1.00;;
14849;SDS011;7517;48.400;11.770;2022-10-26T10:03:27;0.67;;;0.67;;
14849;SDS011;7517;48.400;11.770;2022-10-26T10:06:13;0.77;;;0.77;;
14849;SDS011;7517;48.400;11.770;2022-10-26T10:09:03;1.00;;;0.90;;
14849;SDS011;7517;48.400;11.770;2022-10-26T10:11:40;0.70;;;0.70;;
14849;SDS011;7517;48.400;11.770;2022-10-26T10:14:14;0.80;;;0.80;;
14849;SDS011;7517;48.400;11.770;2022-10-26T10:16:49;1.03;;;0.93;;
14849;SDS011;7517;48.400;11.770;2022-10-26T10:19:27;1.33;;;0.90;;
14849;SDS011;7517;48.400;11.770;2022-10-26T10:21:59;1.67;;;0.77;;
14849;SDS011;7517;48.400;11.770;2022-10-26T10:24:40;2.50;;;1.00;;
14849;SDS011;7517;48.400;11.770;2022-10-26T10:27:22;1.20;;;0.90;;
14849;SDS011;7517;48.400;11.770;2022-10-26T10:29:58;1.17;;;1.07;;
14849;SDS011;7517;48.400;11.770;2022-10-26T10:33:03;1.23;;;1.10;;
14849;SDS011;7517;48.400;11.770;2022-10-26T10:35:39;1.40;;;1.30;;
14849;SDS011;7517;48.400;11.770;2022-10-26T10:38:16;2.07;;;1.10;;
14849;SDS011;7517;48.400;11.770;2022-10-26T10:40:49;2.13;;;0.97;;
14849;SDS011;7517;48.400;11.770;2022-10-26T10:43:21;1.43;;;0.90;;
14849;SDS011;7517;48.400;11.770;2022-10-26T10:45:50;1.83;;;0.93;;
14849;SDS011;7517;48.400;11.770;2022-10-26T10:48:23;0.87;;;0.73;;
14849;SDS011;7517;48.400;11.770;2022-10-26T10:50:55;1.60;;;1.13;;
14849;SDS011;7517;48.400;11.770;2022-10-26T10:53:29;1.23;;;1.10;;
14849;SDS011;7517;48.400;11.770;2022-10-26T10:56:08;1.53;;;1.10;;
14849;SDS011;7517;48.400;11.770;2022-10-26T10:58:57;1.00;;;0.73;;
14849;SDS011;7517;48.400;11.770;2022-10-26T11:01:43;0.83;;;0.53;;
14849;SDS011;7517;48.400;11.770;2022-10-26T11:04:28;2.80;;;0.90;;
14849;SDS011;7517;48.400;11.770;2022-10-26T11:07:15;0.90;;;0.90;;
14849;SDS011;7517;48.400;11.770;2022-10-26T11:09:46;2.90;;;1.10;;
14849;SDS011;7517;48.400;11.770;2022-10-26T11:12:17;1.03;;;0.97;;
14849;SDS011;7517;48.400;11.770;2022-10-26T11:14:56;1.13;;;0.83;;
14849;SDS011;7517;48.400;11.770;2022-10-26T11:17:31;1.23;;;0.70;;
14849;SDS011;7517;48.400;11.770;2022-10-26T11:20:15;0.80;;;0.80;;
14849;SDS011;7517;48.400;11.770;2022-10-26T11:22:55;1.47;;;0.80;;
14849;SDS011;7517;48.400;11.770;2022-10-26T11:25:32;2.10;;;0.97;;
14849;SDS011;7517;48.400;11.770;2022-10-26T11:28:16;1.10;;;0.70;;
14849;SDS011;7517;48.400;11.770;2022-10-26T11:30:54;1.10;;;1.00;;
14849;SDS011;7517;48.400;11.770;2022-10-26T11:33:32;1.40;;;0.80;;
14849;SDS011;7517;48.400;11.770;2022-10-26T11:36:07;1.80;;;0.70;;
14849;SDS011;7517;48.400;11.770;2022-10-26T11:38:41;0.87;;;0.77;;
14849;SDS011;7517;48.400;11.770;2022-10-26T11:41:17;1.47;;;0.80;;
14849;SDS011;7517;48.400;11.770;2022-10-26T11:43:49;0.93;;;0.60;;
14849;SDS011;7517;48.400;11.770;2022-10-26T11:46:27;2.20;;;0.83;;
14849;SDS011;7517;48.400;11.770;2022-10-26T11:49:03;1.07;;;0.60;;
14849;SDS011;7517;48.400;11.770;2022-10-26T11:51:39;0.97;;;0.60;;
14849;SDS011;7517;48.400;11.770;2022-10-26T11:54:15;1.30;;;0.70;;
14849;SDS011;7517;48.400;11.770;2022-10-26T11:56:59;0.60;;;0.60;;
14849;SDS011;7517;48.400;11.770;2022-10-26T11:59:30;1.13;;;0.70;;
14849;SDS011;7517;48.400;11.770;2022-10-26T12:02:05;2.23;;;0.83;;
14849;SDS011;7517;48.400;11.770;2022-10-26T12:04:40;1.77;;;0.77;;
14849;SDS011;7517;48.400;11.770;2022-10-26T12:07:12;0.70;;;0.70;;
14849;SDS011;7517;48.400;11.770;2022-10-26T12:09:49;1.80;;;0.73;;
14849;SDS011;7517;48.400;11.770;2022-10-26T12:12:20;1.23;;;0.50;;
14849;SDS011;7517;48.400;11.770;2022-10-26T12:14:58;1.57;;;0.60;;
14849;SDS011;7517;48.400;11.770;2022-10-26T12:17:43;1.23;;;0.60;;
14849;SDS011;7517;48.400;11.770;2022-10-26T12:20:35;1.50;;;1.00;;
14849;SDS011;7517;48.400;11.770;2022-10-26T12:23:30;1.47;;;0.90;;
14849;SDS011;7517;48.400;11.770;2022-10-26T12:29:12;3.17;;;1.23;;
14849;SDS011;7517;48.400;11.770;2022-10-26T12:32:02;1.63;;;0.97;;
14849;SDS011;7517;48.400;11.770;2022-10-26T12:35:02;0.90;;;0.73;;
14849;SDS011;7517;48.400;11.770;2022-10-26T12:41:25;0.70;;;0.70;;
14849;SDS011;7517;48.400;11.770;2022-10-26T12:43:54;1.20;;;0.60;;
14849;SDS011;7517;48.400;11.770;2022-10-26T12:46:48;1.30;;;0.77;;
14849;SDS011;7517;48.400;11.770;2022-10-26T12:52:42;1.33;;;0.80;;
14849;SDS011;7517;48.400;11.770;2022-10-26T12:55:19;1.80;;;1.00;;
14849;SDS011;7517;48.400;11.770;2022-10-26T12:58:38;1.87;;;1.00;;
14849;SDS011;7517;48.400;11.770;2022-10-26T13:01:43;2.70;;;0.90;;
14849;SDS011;7517;48.400;11.770;2022-10-26T13:05:01;1.20;;;0.70;;
14849;SDS011;7517;48.400;11.770;2022-10-26T13:08:01;1.10;;;0.60;;
14849;SDS011;7517;48.400;11.770;2022-10-26T13:10:31;2.60;;;1.13;;
14849;SDS011;7517;48.400;11.770;2022-10-26T13:13:00;1.63;;;1.00;;
14849;SDS011;7517;48.400;11.770;2022-10-26T13:15:32;2.20;;;1.40;;
14849;SDS011;7517;48.400;11.770;2022-10-26T13:18:07;1.67;;;1.10;;
14849;SDS011;7517;48.400;11.770;2022-10-26T13:20:50;2.20;;;2.00;;
14849;SDS011;7517;48.400;11.770;2022-10-26T13:23:25;2.27;;;1.10;;
14849;SDS011;7517;48.400;11.770;2022-10-26T13:28:47;0.90;;;0.80;;
14849;SDS011;7517;48.400;11.770;2022-10-26T13:34:21;1.20;;;1.03;;
14849;SDS011;7517;48.400;11.770;2022-10-26T13:36:52;1.00;;;0.90;;
14849;SDS011;7517;48.400;11.770;2022-10-26T13:39:35;1.90;;;1.10;;
14849;SDS011;7517;48.400;11.770;2022-10-26T13:42:06;2.83;;;0.90;;
14849;SDS011;7517;48.400;11.770;2022-10-26T13:44:43;1.03;;;0.90;;
14849;SDS011;7517;48.400;11.770;2022-10-26T13:47:22;27.27;;;1.37;;
14849;SDS011;7517;48.400;11.770;2022-10-26T13:49:57;2.10;;;1.20;;
14849;SDS011;7517;48.400;11.770;2022-10-26T13:52:32;1.30;;;1.07;;
14849;SDS011;7517;48.400;11.770;2022-10-26T13:55:06;1.40;;;1.00;;
14849;SDS011;7517;48.400;11.770;2022-10-26T13:57:44;1.30;;;0.80;;
14849;SDS011;7517;48.400;11.770;2022-10-26T14:00:28;1.77;;;0.80;;
14849;SDS011;7517;48.400;11.770;2022-10-26T14:02:55;2.10;;;0.80;;
14849;SDS011;7517;48.400;11.770;2022-10-26T14:05:22;1.50;;;0.67;;
14849;SDS011;7517;48.400;11.770;2022-10-26T14:07:50;1.93;;;0.90;;
14849;SDS011;7517;48.400;11.770;2022-10-26T14:10:24;3.60;;;1.57;;
14849;SDS011;7517;48.400;11.770;2022-10-26T14:12:55;0.50;;;0.50;;
14849;SDS011;7517;48.400;11.770;2022-10-26T14:15:24;2.53;;;0.90;;
14849;SDS011;7517;48.400;11.770;2022-10-26T14:17:55;1.10;;;0.80;;
14849;SDS011;7517;48.400;11.770;2022-10-26T14:20:25;1.40;;;0.90;;
14849;SDS011;7517;48.400;11.770;2022-10-26T14:22:56;1.23;;;0.90;;
14849;SDS011;7517;48.400;11.770;2022-10-26T14:25:25;1.40;;;0.87;;
14849;SDS011;7517;48.400;11.770;2022-10-26T14:27:55;0.90;;;0.90;;
14849;SDS011;7517;48.400;11.770;2022-10-26T14:30:23;2.30;;;1.17;;
14849;SDS011;7517;48.400;11.770;2022-10-26T14:32:53;1.20;;;0.83;;
14849;SDS011;7517;48.400;11.770;2022-10-26T14:35:22;1.53;;;1.43;;
14849;SDS011;7517;48.400;11.770;2022-10-26T14:37:55;2.00;;;1.33;;
14849;SDS011;7517;48.400;11.770;2022-10-26T14:40:26;2.87;;;1.47;;
14849;SDS011;7517;48.400;11.770;2022-10-26T14:43:00;1.67;;;1.00;;
14849;SDS011;7517;48.400;11.770;2022-10-26T14:45:31;1.30;;;1.10;;
14849;SDS011;7517;48.400;11.770;2022-10-26T14:48:01;2.20;;;1.40;;
14849;SDS011;7517;48.400;11.770;2022-10-26T14:50:31;2.60;;;1.33;;
14849;SDS011;7517;48.400;11.770;2022-10-26T14:53:01;1.60;;;0.83;;
14849;SDS011;7517;48.400;11.770;2022-10-26T14:55:45;1.40;;;1.10;;
14849;SDS011;7517;48.400;11.770;2022-10-26T14:58:16;1.00;;;0.73;;
14849;SDS011;7517;48.400;11.770;2022-10-26T15:03:56;1.47;;;1.10;;
14849;SDS011;7517;48.400;11.770;2022-10-26T15:06:29;2.27;;;1.20;;
14849;SDS011;7517;48.400;11.770;2022-10-26T15:09:05;3.13;;;1.17;;
14849;SDS011;7517;48.400;11.770;2022-10-26T15:11:54;2.47;;;1.20;;
14849;SDS011;7517;48.400;11.770;2022-10-26T15:14:21;3.07;;;1.57;;
14849;SDS011;7517;48.400;11.770;2022-10-26T15:16:49;2.37;;;1.80;;
14849;SDS011;7517;48.400;11.770;2022-10-26T15:19:21;2.20;;;1.37;;
14849;SDS011;7517;48.400;11.770;2022-10-26T15:21:49;2.90;;;1.80;;
14849;SDS011;7517;48.400;11.770;2022-10-26T15:24:26;1.90;;;1.70;;
14849;SDS011;7517;48.400;11.770;2022-10-26T15:26:59;1.93;;;1.47;;
14849;SDS011;7517;48.400;11.770;2022-10-26T15:29:38;2.37;;;1.40;;
14849;SDS011;7517;48.400;11.770;2022-10-26T15:37:52;2.20;;;1.77;;
14849;SDS011;7517;48.400;11.770;2022-10-26T15:40:20;2.80;;;1.60;;
14849;SDS011;7517;48.400;11.770;2022-10-26T15:42:51;2.07;;;1.70;;
14849;SDS011;7517;48.400;11.770;2022-10-26T15:45:21;6.23;;;1.90;;
14849;SDS011;7517;48.400;11.770;2022-10-26T15:47:51;1.57;;;1.43;;
14849;SDS011;7517;48.400;11.770;2022-10-26T15:50:22;1.97;;;1.63;;
14849;SDS011;7517;48.400;11.770;2022-10-26T15:52:54;2.07;;;1.30;;
14849;SDS011;7517;48.400;11.770;2022-10-26T15:55:25;3.00;;;1.50;;
14849;SDS011;7517;48.400;11.770;2022-10-26T15:57:55;1.43;;;1.33;;
14849;SDS011;7517;48.400;11.770;2022-10-26T16:00:22;4.03;;;1.43;;